sensor_id;sensor_type;location;lat;lon;timestamp;P1;durP1;ratioP1;P2;durP2;ratioP2
45684;SDS011;46836;48.388;16.210;2022-11-22T00:00:40;16.20;;;10.10;;
45684;SDS011;46836;48.388;16.210;2022-11-22T00:03:08;30.27;;;10.07;;
45684;SDS011;46836;48.388;16.210;2022-11-22T00:05:35;31.45;;;10.50;;
45684;SDS011;46836;48.388;16.210;2022-11-22T00:08:03;22.23;;;10.10;;
45684;SDS011;46836;48.388;16.210;2022-11-22T00:10:30;41.47;;;11.65;;
45684;SDS011;46836;48.388;16.210;2022-11-22T00:12:57;40.28;;;11.23;;
45684;SDS011;46836;48.388;16.210;2022-11-22T00:15:24;28.92;;;10.90;;
45684;SDS011;46836;48.388;16.210;2022-11-22T00:17:51;43.20;;;10.93;;
45684;SDS011;46836;48.388;16.210;2022-11-22T00:20:18;27.15;;;10.63;;
45684;SDS011;46836;48.388;16.210;2022-11-22T00:22:46;22.58;;;11.13;;
45684;SDS011;46836;48.388;16.210;2022-11-22T00:25:13;28.80;;;10.25;;
45684;SDS011;46836;48.388;16.210;2022-11-22T00:27:40;24.65;;;9.85;;
45684;SDS011;46836;48.388;16.210;2022-11-22T00:30:08;17.13;;;9.85;;
45684;SDS011;46836;48.388;16.210;2022-11-22T00:32:36;17.30;;;10.35;;
45684;SDS011;46836;48.388;16.210;2022-11-22T00:35:03;23.35;;;9.65;;
45684;SDS011;46836;48.388;16.210;2022-11-22T00:37:30;16.25;;;9.93;;
45684;SDS011;46836;48.388;16.210;2022-11-22T00:39:57;20.55;;;8.77;;
45684;SDS011;46836;48.388;16.210;2022-11-22T00:42:24;23.70;;;11.32;;
45684;SDS011;46836;48.388;16.210;2022-11-22T00:44:51;23.67;;;10.10;;
45684;SDS011;46836;48.388;16.210;2022-11-22T00:47:18;15.43;;;9.02;;
45684;SDS011;46836;48.388;16.210;2022-11-22T00:49:45;13.68;;;9.57;;
45684;SDS011;46836;48.388;16.210;2022-11-22T00:52:12;16.05;;;9.55;;
45684;SDS011;46836;48.388;16.210;2022-11-22T00:54:39;20.63;;;9.85;;
45684;SDS011;46836;48.388;16.210;2022-11-22T00:57:06;16.20;;;9.25;;
45684;SDS011;46836;48.388;16.210;2022-11-22T00:59:33;16.65;;;9.35;;
45684;SDS011;46836;48.388;16.210;2022-11-22T01:02:00;15.00;;;9.77;;
45684;SDS011;46836;48.388;16.210;2022-11-22T01:04:27;16.40;;;9.30;;
45684;SDS011;46836;48.388;16.210;2022-11-22T01:06:54;14.13;;;9.13;;
45684;SDS011;46836;48.388;16.210;2022-11-22T01:09:22;16.13;;;9.57;;
45684;SDS011;46836;48.388;16.210;2022-11-22T01:11:49;17.02;;;9.73;;
45684;SDS011;46836;48.388;16.210;2022-11-22T01:14:17;16.30;;;9.90;;
45684;SDS011;46836;48.388;16.210;2022-11-22T01:16:45;12.88;;;8.93;;
45684;SDS011;46836;48.388;16.210;2022-11-22T01:19:12;13.48;;;8.18;;
45684;SDS011;46836;48.388;16.210;2022-11-22T01:21:40;15.82;;;9.18;;
45684;SDS011;46836;48.388;16.210;2022-11-22T01:24:07;16.95;;;9.40;;
45684;SDS011;46836;48.388;16.210;2022-11-22T01:26:34;12.20;;;7.93;;
45684;SDS011;46836;48.388;16.210;2022-11-22T01:29:02;13.30;;;8.98;;
45684;SDS011;46836;48.388;16.210;2022-11-22T01:31:32;14.23;;;7.40;;
45684;SDS011;46836;48.388;16.210;2022-11-22T01:33:59;13.25;;;7.32;;
45684;SDS011;46836;48.388;16.210;2022-11-22T01:36:26;11.85;;;7.05;;
45684;SDS011;46836;48.388;16.210;2022-11-22T01:38:53;11.18;;;6.97;;
45684;SDS011;46836;48.388;16.210;2022-11-22T01:41:20;11.57;;;6.95;;
45684;SDS011;46836;48.388;16.210;2022-11-22T01:43:48;13.30;;;6.82;;
45684;SDS011;46836;48.388;16.210;2022-11-22T01:46:33;18.80;;;7.85;;
45684;SDS011;46836;48.388;16.210;2022-11-22T01:49:06;11.40;;;7.13;;
45684;SDS011;46836;48.388;16.210;2022-11-22T01:51:48;12.85;;;6.40;;
45684;SDS011;46836;48.388;16.210;2022-11-22T01:54:20;10.05;;;6.15;;
45684;SDS011;46836;48.388;16.210;2022-11-22T01:56:49;17.67;;;7.07;;
45684;SDS011;46836;48.388;16.210;2022-11-22T01:59:21;18.02;;;6.10;;
45684;SDS011;46836;48.388;16.210;2022-11-22T02:01:51;10.38;;;5.90;;
45684;SDS011;46836;48.388;16.210;2022-11-22T02:04:19;12.32;;;7.25;;
45684;SDS011;46836;48.388;16.210;2022-11-22T02:09:29;11.55;;;6.35;;
45684;SDS011;46836;48.388;16.210;2022-11-22T02:12:00;11.77;;;6.60;;
45684;SDS011;46836;48.388;16.210;2022-11-22T02:14:33;10.65;;;6.45;;
45684;SDS011;46836;48.388;16.210;2022-11-22T02:17:01;11.98;;;5.43;;
45684;SDS011;46836;48.388;16.210;2022-11-22T02:19:41;11.07;;;6.10;;
45684;SDS011;46836;48.388;16.210;2022-11-22T02:25:03;13.75;;;7.03;;
45684;SDS011;46836;48.388;16.210;2022-11-22T02:27:40;9.70;;;6.65;;
45684;SDS011;46836;48.388;16.210;2022-11-22T02:30:08;10.40;;;6.07;;
45684;SDS011;46836;48.388;16.210;2022-11-22T02:32:35;10.63;;;6.70;;
45684;SDS011;46836;48.388;16.210;2022-11-22T02:35:12;14.05;;;7.45;;
45684;SDS011;46836;48.388;16.210;2022-11-22T02:37:47;13.95;;;6.32;;
45684;SDS011;46836;48.388;16.210;2022-11-22T02:40:16;20.52;;;5.75;;
45684;SDS011;46836;48.388;16.210;2022-11-22T02:42:47;8.30;;;5.85;;
45684;SDS011;46836;48.388;16.210;2022-11-22T02:45:17;11.45;;;6.63;;
45684;SDS011;46836;48.388;16.210;2022-11-22T02:47:44;9.10;;;6.07;;
45684;SDS011;46836;48.388;16.210;2022-11-22T02:50:11;13.63;;;7.53;;
45684;SDS011;46836;48.388;16.210;2022-11-22T02:52:38;9.98;;;6.03;;
45684;SDS011;46836;48.388;16.210;2022-11-22T02:55:05;15.35;;;6.40;;
45684;SDS011;46836;48.388;16.210;2022-11-22T02:57:33;12.82;;;6.75;;
45684;SDS011;46836;48.388;16.210;2022-11-22T03:00:00;10.20;;;6.57;;
45684;SDS011;46836;48.388;16.210;2022-11-22T03:02:27;11.30;;;6.22;;
45684;SDS011;46836;48.388;16.210;2022-11-22T03:04:54;10.27;;;5.78;;
45684;SDS011;46836;48.388;16.210;2022-11-22T03:07:21;13.75;;;6.80;;
45684;SDS011;46836;48.388;16.210;2022-11-22T03:09:48;11.20;;;6.38;;
45684;SDS011;46836;48.388;16.210;2022-11-22T03:12:15;11.95;;;6.90;;
45684;SDS011;46836;48.388;16.210;2022-11-22T03:14:42;14.52;;;6.90;;
45684;SDS011;46836;48.388;16.210;2022-11-22T03:17:09;9.88;;;6.30;;
45684;SDS011;46836;48.388;16.210;2022-11-22T03:19:36;13.95;;;5.80;;
45684;SDS011;46836;48.388;16.210;2022-11-22T03:22:02;14.57;;;6.57;;
45684;SDS011;46836;48.388;16.210;2022-11-22T03:24:30;10.45;;;6.28;;
45684;SDS011;46836;48.388;16.210;2022-11-22T03:26:57;8.45;;;4.90;;
45684;SDS011;46836;48.388;16.210;2022-11-22T03:29:24;10.98;;;6.65;;
45684;SDS011;46836;48.388;16.210;2022-11-22T03:31:51;10.23;;;6.25;;
45684;SDS011;46836;48.388;16.210;2022-11-22T03:34:18;12.38;;;6.93;;
45684;SDS011;46836;48.388;16.210;2022-11-22T03:36:45;11.18;;;6.88;;
45684;SDS011;46836;48.388;16.210;2022-11-22T03:39:12;12.90;;;7.20;;
45684;SDS011;46836;48.388;16.210;2022-11-22T03:41:39;12.57;;;7.10;;
45684;SDS011;46836;48.388;16.210;2022-11-22T03:44:06;14.15;;;7.72;;
45684;SDS011;46836;48.388;16.210;2022-11-22T03:49:13;12.10;;;6.18;;
45684;SDS011;46836;48.388;16.210;2022-11-22T03:51:40;15.48;;;8.15;;
45684;SDS011;46836;48.388;16.210;2022-11-22T03:54:07;14.63;;;7.22;;
45684;SDS011;46836;48.388;16.210;2022-11-22T03:56:34;14.43;;;8.30;;
45684;SDS011;46836;48.388;16.210;2022-11-22T03:59:01;11.52;;;7.38;;
45684;SDS011;46836;48.388;16.210;2022-11-22T04:01:28;11.38;;;7.32;;
45684;SDS011;46836;48.388;16.210;2022-11-22T04:03:56;14.13;;;8.43;;
45684;SDS011;46836;48.388;16.210;2022-11-22T04:06:23;16.15;;;8.55;;
45684;SDS011;46836;48.388;16.210;2022-11-22T04:08:50;15.85;;;8.40;;
45684;SDS011;46836;48.388;16.210;2022-11-22T04:11:17;16.45;;;9.32;;
45684;SDS011;46836;48.388;16.210;2022-11-22T04:13:44;15.93;;;9.18;;
45684;SDS011;46836;48.388;16.210;2022-11-22T04:16:29;17.48;;;9.82;;
45684;SDS011;46836;48.388;16.210;2022-11-22T04:18:56;17.92;;;8.15;;
45684;SDS011;46836;48.388;16.210;2022-11-22T04:21:23;14.98;;;8.23;;
45684;SDS011;46836;48.388;16.210;2022-11-22T04:24:00;13.18;;;7.80;;
45684;SDS011;46836;48.388;16.210;2022-11-22T04:26:46;17.75;;;8.20;;
45684;SDS011;46836;48.388;16.210;2022-11-22T04:29:14;15.35;;;8.68;;
45684;SDS011;46836;48.388;16.210;2022-11-22T04:31:43;17.27;;;8.50;;
45684;SDS011;46836;48.388;16.210;2022-11-22T04:34:28;16.73;;;8.50;;
45684;SDS011;46836;48.388;16.210;2022-11-22T04:36:56;16.52;;;7.85;;
45684;SDS011;46836;48.388;16.210;2022-11-22T04:39:23;15.45;;;8.73;;
45684;SDS011;46836;48.388;16.210;2022-11-22T04:45:37;15.55;;;8.65;;
45684;SDS011;46836;48.388;16.210;2022-11-22T04:48:21;14.25;;;8.30;;
45684;SDS011;46836;48.388;16.210;2022-11-22T04:50:48;16.38;;;9.07;;
45684;SDS011;46836;48.388;16.210;2022-11-22T04:53:33;13.10;;;8.18;;
45684;SDS011;46836;48.388;16.210;2022-11-22T04:56:01;16.60;;;8.65;;
45684;SDS011;46836;48.388;16.210;2022-11-22T04:58:28;15.90;;;9.02;;
45684;SDS011;46836;48.388;16.210;2022-11-22T05:00:55;15.93;;;8.93;;
45684;SDS011;46836;48.388;16.210;2022-11-22T05:03:22;15.52;;;10.07;;
45684;SDS011;46836;48.388;16.210;2022-11-22T05:05:49;13.70;;;8.43;;
45684;SDS011;46836;48.388;16.210;2022-11-22T05:08:16;16.38;;;8.82;;
45684;SDS011;46836;48.388;16.210;2022-11-22T05:10:43;16.90;;;9.23;;
45684;SDS011;46836;48.388;16.210;2022-11-22T05:13:24;15.13;;;9.18;;
45684;SDS011;46836;48.388;16.210;2022-11-22T05:16:06;15.50;;;9.40;;
45684;SDS011;46836;48.388;16.210;2022-11-22T05:18:34;18.27;;;10.60;;
45684;SDS011;46836;48.388;16.210;2022-11-22T05:21:05;20.60;;;10.45;;
45684;SDS011;46836;48.388;16.210;2022-11-22T05:23:39;17.98;;;10.18;;
45684;SDS011;46836;48.388;16.210;2022-11-22T05:26:25;17.45;;;10.20;;
45684;SDS011;46836;48.388;16.210;2022-11-22T05:28:53;14.95;;;9.40;;
45684;SDS011;46836;48.388;16.210;2022-11-22T05:31:23;14.93;;;9.52;;
45684;SDS011;46836;48.388;16.210;2022-11-22T05:33:53;16.92;;;9.32;;
45684;SDS011;46836;48.388;16.210;2022-11-22T05:36:22;15.05;;;9.15;;
45684;SDS011;46836;48.388;16.210;2022-11-22T05:38:50;13.32;;;8.48;;
45684;SDS011;46836;48.388;16.210;2022-11-22T05:41:18;12.82;;;7.88;;
45684;SDS011;46836;48.388;16.210;2022-11-22T05:43:45;14.05;;;8.80;;
45684;SDS011;46836;48.388;16.210;2022-11-22T05:46:16;15.23;;;8.90;;
45684;SDS011;46836;48.388;16.210;2022-11-22T05:48:51;17.73;;;10.63;;
45684;SDS011;46836;48.388;16.210;2022-11-22T05:51:20;17.17;;;10.18;;
45684;SDS011;46836;48.388;16.210;2022-11-22T05:53:53;19.40;;;11.18;;
45684;SDS011;46836;48.388;16.210;2022-11-22T05:56:21;22.10;;;12.77;;
45684;SDS011;46836;48.388;16.210;2022-11-22T05:58:49;19.13;;;10.32;;
45684;SDS011;46836;48.388;16.210;2022-11-22T06:01:18;22.63;;;11.35;;
45684;SDS011;46836;48.388;16.210;2022-11-22T06:03:47;22.13;;;11.43;;
45684;SDS011;46836;48.388;16.210;2022-11-22T06:06:15;24.17;;;13.15;;
45684;SDS011;46836;48.388;16.210;2022-11-22T06:08:43;19.58;;;9.52;;
45684;SDS011;46836;48.388;16.210;2022-11-22T06:11:15;21.52;;;11.98;;
45684;SDS011;46836;48.388;16.210;2022-11-22T06:13:48;22.90;;;11.20;;
45684;SDS011;46836;48.388;16.210;2022-11-22T06:16:17;15.60;;;9.57;;
45684;SDS011;46836;48.388;16.210;2022-11-22T06:18:45;17.33;;;9.23;;
45684;SDS011;46836;48.388;16.210;2022-11-22T06:21:17;20.25;;;10.68;;
45684;SDS011;46836;48.388;16.210;2022-11-22T06:23:51;19.63;;;10.32;;
45684;SDS011;46836;48.388;16.210;2022-11-22T06:26:20;15.25;;;9.45;;
45684;SDS011;46836;48.388;16.210;2022-11-22T06:28:49;24.58;;;11.70;;
45684;SDS011;46836;48.388;16.210;2022-11-22T06:31:17;24.60;;;11.93;;
45684;SDS011;46836;48.388;16.210;2022-11-22T06:33:45;23.70;;;13.20;;
45684;SDS011;46836;48.388;16.210;2022-11-22T06:36:14;20.00;;;10.55;;
45684;SDS011;46836;48.388;16.210;2022-11-22T06:38:43;20.17;;;12.77;;
45684;SDS011;46836;48.388;16.210;2022-11-22T06:41:12;24.48;;;11.55;;
45684;SDS011;46836;48.388;16.210;2022-11-22T06:43:44;18.67;;;10.23;;
45684;SDS011;46836;48.388;16.210;2022-11-22T06:46:15;21.55;;;11.35;;
45684;SDS011;46836;48.388;16.210;2022-11-22T06:48:44;18.15;;;12.85;;
45684;SDS011;46836;48.388;16.210;2022-11-22T06:51:13;25.30;;;12.30;;
45684;SDS011;46836;48.388;16.210;2022-11-22T06:53:44;19.33;;;11.93;;
45684;SDS011;46836;48.388;16.210;2022-11-22T06:56:18;20.85;;;11.75;;
45684;SDS011;46836;48.388;16.210;2022-11-22T06:58:47;17.52;;;10.82;;
45684;SDS011;46836;48.388;16.210;2022-11-22T07:01:23;22.88;;;10.95;;
45684;SDS011;46836;48.388;16.210;2022-11-22T07:03:52;20.15;;;11.40;;
45684;SDS011;46836;48.388;16.210;2022-11-22T07:06:30;16.45;;;10.02;;
45684;SDS011;46836;48.388;16.210;2022-11-22T07:08:58;17.88;;;11.25;;
45684;SDS011;46836;48.388;16.210;2022-11-22T07:11:27;17.85;;;11.00;;
45684;SDS011;46836;48.388;16.210;2022-11-22T07:13:57;17.70;;;10.50;;
45684;SDS011;46836;48.388;16.210;2022-11-22T07:16:32;22.60;;;11.98;;
45684;SDS011;46836;48.388;16.210;2022-11-22T07:19:00;20.23;;;11.13;;
45684;SDS011;46836;48.388;16.210;2022-11-22T07:21:27;19.60;;;10.75;;
45684;SDS011;46836;48.388;16.210;2022-11-22T07:23:54;19.40;;;11.70;;
45684;SDS011;46836;48.388;16.210;2022-11-22T07:26:23;17.13;;;10.02;;
45684;SDS011;46836;48.388;16.210;2022-11-22T07:28:51;20.25;;;11.57;;
45684;SDS011;46836;48.388;16.210;2022-11-22T07:31:18;20.85;;;10.93;;
45684;SDS011;46836;48.388;16.210;2022-11-22T07:33:48;15.80;;;9.95;;
45684;SDS011;46836;48.388;16.210;2022-11-22T07:36:16;17.45;;;10.95;;
45684;SDS011;46836;48.388;16.210;2022-11-22T07:38:46;20.23;;;10.98;;
45684;SDS011;46836;48.388;16.210;2022-11-22T07:41:14;17.45;;;10.77;;
45684;SDS011;46836;48.388;16.210;2022-11-22T07:43:42;18.55;;;10.93;;
45684;SDS011;46836;48.388;16.210;2022-11-22T07:48:48;17.77;;;10.90;;
45684;SDS011;46836;48.388;16.210;2022-11-22T07:51:15;17.73;;;10.82;;
45684;SDS011;46836;48.388;16.210;2022-11-22T07:53:43;17.50;;;11.73;;
45684;SDS011;46836;48.388;16.210;2022-11-22T07:56:10;18.13;;;11.40;;
45684;SDS011;46836;48.388;16.210;2022-11-22T07:58:37;16.83;;;11.43;;
45684;SDS011;46836;48.388;16.210;2022-11-22T08:01:05;19.05;;;12.43;;
45684;SDS011;46836;48.388;16.210;2022-11-22T08:03:34;16.45;;;10.43;;
45684;SDS011;46836;48.388;16.210;2022-11-22T08:06:02;18.77;;;12.55;;
45684;SDS011;46836;48.388;16.210;2022-11-22T08:08:31;21.88;;;11.27;;
45684;SDS011;46836;48.388;16.210;2022-11-22T08:10:58;16.67;;;10.73;;
45684;SDS011;46836;48.388;16.210;2022-11-22T08:13:26;18.70;;;12.07;;
45684;SDS011;46836;48.388;16.210;2022-11-22T08:15:53;25.42;;;11.68;;
45684;SDS011;46836;48.388;16.210;2022-11-22T08:18:27;19.15;;;11.77;;
45684;SDS011;46836;48.388;16.210;2022-11-22T08:21:04;20.40;;;12.45;;
45684;SDS011;46836;48.388;16.210;2022-11-22T08:23:35;20.10;;;11.70;;
45684;SDS011;46836;48.388;16.210;2022-11-22T08:26:03;23.77;;;12.50;;
45684;SDS011;46836;48.388;16.210;2022-11-22T08:28:30;23.92;;;14.23;;
45684;SDS011;46836;48.388;16.210;2022-11-22T08:30:59;19.27;;;12.80;;
45684;SDS011;46836;48.388;16.210;2022-11-22T08:33:30;18.48;;;10.75;;
45684;SDS011;46836;48.388;16.210;2022-11-22T08:35:58;19.27;;;11.35;;
45684;SDS011;46836;48.388;16.210;2022-11-22T08:38:25;18.77;;;11.48;;
45684;SDS011;46836;48.388;16.210;2022-11-22T08:40:52;23.63;;;11.73;;
45684;SDS011;46836;48.388;16.210;2022-11-22T08:43:19;17.98;;;10.40;;
45684;SDS011;46836;48.388;16.210;2022-11-22T08:45:53;18.02;;;10.90;;
45684;SDS011;46836;48.388;16.210;2022-11-22T08:48:25;17.27;;;10.88;;
45684;SDS011;46836;48.388;16.210;2022-11-22T08:50:55;18.63;;;11.23;;
45684;SDS011;46836;48.388;16.210;2022-11-22T08:53:24;18.35;;;12.10;;
45684;SDS011;46836;48.388;16.210;2022-11-22T08:55:52;19.60;;;12.43;;
45684;SDS011;46836;48.388;16.210;2022-11-22T08:58:20;19.92;;;10.85;;
45684;SDS011;46836;48.388;16.210;2022-11-22T09:00:48;20.88;;;11.20;;
45684;SDS011;46836;48.388;16.210;2022-11-22T09:03:15;17.13;;;11.18;;
45684;SDS011;46836;48.388;16.210;2022-11-22T09:05:42;18.17;;;10.82;;
45684;SDS011;46836;48.388;16.210;2022-11-22T09:08:32;18.70;;;11.20;;
45684;SDS011;46836;48.388;16.210;2022-11-22T09:11:05;22.60;;;11.40;;
45684;SDS011;46836;48.388;16.210;2022-11-22T09:13:34;23.08;;;11.98;;
45684;SDS011;46836;48.388;16.210;2022-11-22T09:16:04;23.13;;;13.05;;
45684;SDS011;46836;48.388;16.210;2022-11-22T09:18:43;20.77;;;12.13;;
45684;SDS011;46836;48.388;16.210;2022-11-22T09:21:12;22.40;;;11.68;;
45684;SDS011;46836;48.388;16.210;2022-11-22T09:23:41;26.05;;;13.13;;
45684;SDS011;46836;48.388;16.210;2022-11-22T09:26:17;21.67;;;12.30;;
45684;SDS011;46836;48.388;16.210;2022-11-22T09:28:47;19.95;;;11.45;;
45684;SDS011;46836;48.388;16.210;2022-11-22T09:31:15;21.45;;;12.18;;
45684;SDS011;46836;48.388;16.210;2022-11-22T09:33:44;20.00;;;12.02;;
45684;SDS011;46836;48.388;16.210;2022-11-22T09:36:13;19.48;;;11.27;;
45684;SDS011;46836;48.388;16.210;2022-11-22T09:38:41;18.73;;;11.10;;
45684;SDS011;46836;48.388;16.210;2022-11-22T09:58:07;21.85;;;13.15;;
45684;SDS011;46836;48.388;16.210;2022-11-22T10:00:22;22.38;;;13.70;;
45684;SDS011;46836;48.388;16.210;2022-11-22T10:02:53;22.95;;;14.75;;
45684;SDS011;46836;48.388;16.210;2022-11-22T10:08:36;26.80;;;16.23;;
45684;SDS011;46836;48.388;16.210;2022-11-22T10:11:00;28.02;;;15.75;;
45684;SDS011;46836;48.388;16.210;2022-11-22T10:14:09;32.40;;;17.63;;
45684;SDS011;46836;48.388;16.210;2022-11-22T10:16:35;31.00;;;16.63;;
45684;SDS011;46836;48.388;16.210;2022-11-22T10:19:14;30.30;;;16.45;;
45684;SDS011;46836;48.388;16.210;2022-11-22T10:21:46;33.25;;;18.33;;
45684;SDS011;46836;48.388;16.210;2022-11-22T10:24:14;24.95;;;16.13;;
45684;SDS011;46836;48.388;16.210;2022-11-22T10:26:43;29.52;;;17.20;;
45684;SDS011;46836;48.388;16.210;2022-11-22T10:29:22;27.58;;;17.13;;
45684;SDS011;46836;48.388;16.210;2022-11-22T10:32:10;29.67;;;17.17;;
45684;SDS011;46836;48.388;16.210;2022-11-22T10:37:31;28.10;;;16.55;;
45684;SDS011;46836;48.388;16.210;2022-11-22T10:45:32;26.50;;;16.55;;
45684;SDS011;46836;48.388;16.210;2022-11-22T10:53:39;26.05;;;16.13;;
45684;SDS011;46836;48.388;16.210;2022-11-22T10:56:26;25.90;;;16.13;;
45684;SDS011;46836;48.388;16.210;2022-11-22T11:04:50;27.75;;;16.00;;
45684;SDS011;46836;48.388;16.210;2022-11-22T11:07:20;33.17;;;17.67;;
45684;SDS011;46836;48.388;16.210;2022-11-22T11:10:03;26.67;;;16.65;;
45684;SDS011;46836;48.388;16.210;2022-11-22T11:13:10;26.90;;;15.30;;
45684;SDS011;46836;48.388;16.210;2022-11-22T11:15:49;28.73;;;15.80;;
45684;SDS011;46836;48.388;16.210;2022-11-22T11:18:42;29.85;;;17.27;;
45684;SDS011;46836;48.388;16.210;2022-11-22T11:21:17;29.23;;;15.10;;
45684;SDS011;46836;48.388;16.210;2022-11-22T11:23:44;25.65;;;15.40;;
45684;SDS011;46836;48.388;16.210;2022-11-22T11:26:18;26.70;;;15.85;;
45684;SDS011;46836;48.388;16.210;2022-11-22T11:31:47;26.65;;;15.43;;
45684;SDS011;46836;48.388;16.210;2022-11-22T11:36:45;28.35;;;17.63;;
45684;SDS011;46836;48.388;16.210;2022-11-22T11:39:19;29.75;;;17.38;;
45684;SDS011;46836;48.388;16.210;2022-11-22T11:41:48;27.80;;;16.17;;
45684;SDS011;46836;48.388;16.210;2022-11-22T11:46:58;27.77;;;16.02;;
45684;SDS011;46836;48.388;16.210;2022-11-22T11:49:26;26.67;;;16.65;;
45684;SDS011;46836;48.388;16.210;2022-11-22T11:52:05;23.73;;;15.95;;
45684;SDS011;46836;48.388;16.210;2022-11-22T11:54:47;28.90;;;15.63;;
45684;SDS011;46836;48.388;16.210;2022-11-22T11:57:20;25.95;;;14.88;;
45684;SDS011;46836;48.388;16.210;2022-11-22T11:59:54;22.92;;;14.63;;
45684;SDS011;46836;48.388;16.210;2022-11-22T12:02:28;22.38;;;14.95;;
45684;SDS011;46836;48.388;16.210;2022-11-22T12:10:02;24.40;;;14.98;;
45684;SDS011;46836;48.388;16.210;2022-11-22T12:12:51;23.00;;;15.57;;
45684;SDS011;46836;48.388;16.210;2022-11-22T12:26:48;20.08;;;13.18;;
45684;SDS011;46836;48.388;16.210;2022-11-22T12:29:15;19.45;;;13.63;;
45684;SDS011;46836;48.388;16.210;2022-11-22T12:31:56;24.77;;;14.32;;
45684;SDS011;46836;48.388;16.210;2022-11-22T12:34:35;19.15;;;12.40;;
45684;SDS011;46836;48.388;16.210;2022-11-22T12:37:27;17.33;;;11.70;;
45684;SDS011;46836;48.388;16.210;2022-11-22T12:40:16;22.00;;;13.65;;
45684;SDS011;46836;48.388;16.210;2022-11-22T12:43:03;19.27;;;12.63;;
45684;SDS011;46836;48.388;16.210;2022-11-22T12:45:41;18.10;;;12.85;;
45684;SDS011;46836;48.388;16.210;2022-11-22T12:48:15;22.02;;;13.93;;
45684;SDS011;46836;48.388;16.210;2022-11-22T12:50:48;21.85;;;13.93;;
45684;SDS011;46836;48.388;16.210;2022-11-22T12:53:29;22.10;;;14.15;;
45684;SDS011;46836;48.388;16.210;2022-11-22T13:09:34;24.70;;;13.93;;
45684;SDS011;46836;48.388;16.210;2022-11-22T13:12:10;23.15;;;13.63;;
45684;SDS011;46836;48.388;16.210;2022-11-22T13:14:52;21.45;;;12.65;;
45684;SDS011;46836;48.388;16.210;2022-11-22T13:17:22;18.58;;;13.88;;
45684;SDS011;46836;48.388;16.210;2022-11-22T13:25:07;19.27;;;13.55;;
45684;SDS011;46836;48.388;16.210;2022-11-22T13:27:44;16.45;;;12.10;;
45684;SDS011;46836;48.388;16.210;2022-11-22T13:30:18;20.17;;;13.55;;
45684;SDS011;46836;48.388;16.210;2022-11-22T13:32:53;19.33;;;13.30;;
45684;SDS011;46836;48.388;16.210;2022-11-22T13:35:31;21.63;;;15.02;;
45684;SDS011;46836;48.388;16.210;2022-11-22T13:38:02;24.58;;;13.18;;
45684;SDS011;46836;48.388;16.210;2022-11-22T13:40:43;22.88;;;13.57;;
45684;SDS011;46836;48.388;16.210;2022-11-22T13:45:57;27.55;;;14.10;;
45684;SDS011;46836;48.388;16.210;2022-11-22T13:51:07;23.45;;;13.20;;
45684;SDS011;46836;48.388;16.210;2022-11-22T13:53:44;26.83;;;14.82;;
45684;SDS011;46836;48.388;16.210;2022-11-22T14:06:47;22.52;;;13.85;;
45684;SDS011;46836;48.388;16.210;2022-11-22T14:28:46;21.52;;;15.40;;
45684;SDS011;46836;48.388;16.210;2022-11-22T14:31:39;24.67;;;15.85;;
45684;SDS011;46836;48.388;16.210;2022-11-22T14:50:33;30.27;;;14.95;;
45684;SDS011;46836;48.388;16.210;2022-11-22T14:55:41;23.45;;;15.27;;
45684;SDS011;46836;48.388;16.210;2022-11-22T14:58:11;22.55;;;15.30;;
45684;SDS011;46836;48.388;16.210;2022-11-22T15:04:26;20.63;;;14.70;;
45684;SDS011;46836;48.388;16.210;2022-11-22T15:12:41;26.95;;;15.73;;
45684;SDS011;46836;48.388;16.210;2022-11-22T15:15:32;20.08;;;15.05;;
45684;SDS011;46836;48.388;16.210;2022-11-22T15:18:33;20.73;;;14.70;;
45684;SDS011;46836;48.388;16.210;2022-11-22T15:21:29;21.35;;;14.77;;
45684;SDS011;46836;48.388;16.210;2022-11-22T15:24:20;23.80;;;16.05;;
45684;SDS011;46836;48.388;16.210;2022-11-22T15:27:26;24.73;;;15.77;;
45684;SDS011;46836;48.388;16.210;2022-11-22T15:30:21;20.25;;;13.90;;
45684;SDS011;46836;48.388;16.210;2022-11-22T15:33:32;20.73;;;14.02;;
45684;SDS011;46836;48.388;16.210;2022-11-22T15:36:32;28.13;;;18.75;;
45684;SDS011;46836;48.388;16.210;2022-11-22T15:39:35;22.42;;;15.80;;
45684;SDS011;46836;48.388;16.210;2022-11-22T15:42:23;21.10;;;16.45;;
45684;SDS011;46836;48.388;16.210;2022-11-22T15:45:11;19.98;;;14.85;;
45684;SDS011;46836;48.388;16.210;2022-11-22T15:48:08;22.98;;;15.88;;
45684;SDS011;46836;48.388;16.210;2022-11-22T15:51:03;20.65;;;14.10;;
45684;SDS011;46836;48.388;16.210;2022-11-22T15:57:15;17.80;;;13.23;;
45684;SDS011;46836;48.388;16.210;2022-11-22T15:59:51;17.80;;;14.55;;
45684;SDS011;46836;48.388;16.210;2022-11-22T16:02:20;18.02;;;14.45;;
45684;SDS011;46836;48.388;16.210;2022-11-22T16:04:51;20.17;;;14.77;;
45684;SDS011;46836;48.388;16.210;2022-11-22T16:07:44;22.45;;;14.50;;
45684;SDS011;46836;48.388;16.210;2022-11-22T16:13:11;19.15;;;13.05;;
45684;SDS011;46836;48.388;16.210;2022-11-22T16:18:36;18.10;;;13.07;;
45684;SDS011;46836;48.388;16.210;2022-11-22T16:21:05;21.52;;;13.18;;
45684;SDS011;46836;48.388;16.210;2022-11-22T16:24:36;19.00;;;12.40;;
45684;SDS011;46836;48.388;16.210;2022-11-22T16:26:53;17.83;;;12.43;;
45684;SDS011;46836;48.388;16.210;2022-11-22T16:29:31;17.45;;;11.55;;
45684;SDS011;46836;48.388;16.210;2022-11-22T16:32:11;17.00;;;12.30;;
45684;SDS011;46836;48.388;16.210;2022-11-22T16:34:40;16.70;;;12.18;;
45684;SDS011;46836;48.388;16.210;2022-11-22T16:37:28;21.60;;;12.68;;
45684;SDS011;46836;48.388;16.210;2022-11-22T16:40:03;18.83;;;12.38;;
45684;SDS011;46836;48.388;16.210;2022-11-22T16:42:32;14.68;;;11.65;;
45684;SDS011;46836;48.388;16.210;2022-11-22T16:45:01;18.65;;;12.98;;
45684;SDS011;46836;48.388;16.210;2022-11-22T16:47:31;21.75;;;13.40;;
45684;SDS011;46836;48.388;16.210;2022-11-22T16:49:58;17.65;;;12.50;;
45684;SDS011;46836;48.388;16.210;2022-11-22T16:52:26;19.33;;;11.90;;
45684;SDS011;46836;48.388;16.210;2022-11-22T16:54:53;23.85;;;12.75;;
45684;SDS011;46836;48.388;16.210;2022-11-22T16:57:21;16.75;;;12.35;;
45684;SDS011;46836;48.388;16.210;2022-11-22T16:59:49;15.60;;;11.93;;
45684;SDS011;46836;48.388;16.210;2022-11-22T17:02:17;15.38;;;11.43;;
45684;SDS011;46836;48.388;16.210;2022-11-22T17:04:47;16.63;;;11.93;;
45684;SDS011;46836;48.388;16.210;2022-11-22T17:07:15;18.77;;;12.73;;
45684;SDS011;46836;48.388;16.210;2022-11-22T17:09:42;21.85;;;13.55;;
45684;SDS011;46836;48.388;16.210;2022-11-22T17:12:14;21.13;;;12.50;;
45684;SDS011;46836;48.388;16.210;2022-11-22T17:14:47;22.02;;;12.65;;
45684;SDS011;46836;48.388;16.210;2022-11-22T17:17:17;20.10;;;12.57;;
45684;SDS011;46836;48.388;16.210;2022-11-22T17:19:45;20.73;;;12.98;;
45684;SDS011;46836;48.388;16.210;2022-11-22T17:22:21;17.13;;;12.48;;
45684;SDS011;46836;48.388;16.210;2022-11-22T17:24:48;20.42;;;12.57;;
45684;SDS011;46836;48.388;16.210;2022-11-22T17:27:16;17.23;;;11.80;;
45684;SDS011;46836;48.388;16.210;2022-11-22T17:29:44;21.52;;;13.20;;
45684;SDS011;46836;48.388;16.210;2022-11-22T17:32:16;21.25;;;13.95;;